sensor_id;sensor_type;location;lat;lon;timestamp;P1;durP1;ratioP1;P2;durP2;ratioP2
34146;SDS011;20423;49.448;9.056;2022-10-23T00:01:39;7.68;;;5.35;;
34146;SDS011;20423;49.448;9.056;2022-10-23T00:04:11;12.23;;;5.15;;
34146;SDS011;20423;49.448;9.056;2022-10-23T00:06:38;10.60;;;5.03;;
34146;SDS011;20423;49.448;9.056;2022-10-23T00:09:05;13.20;;;5.43;;
34146;SDS011;20423;49.448;9.056;2022-10-23T00:11:33;11.32;;;5.35;;
34146;SDS011;20423;49.448;9.056;2022-10-23T00:13:59;13.25;;;5.40;;
34146;SDS011;20423;49.448;9.056;2022-10-23T00:16:27;12.15;;;5.80;;
34146;SDS011;20423;49.448;9.056;2022-10-23T00:18:54;16.80;;;5.10;;
34146;SDS011;20423;49.448;9.056;2022-10-23T00:21:19;12.23;;;4.82;;
34146;SDS011;20423;49.448;9.056;2022-10-23T00:23:46;9.05;;;5.20;;
34146;SDS011;20423;49.448;9.056;2022-10-23T00:26:12;13.52;;;4.95;;
34146;SDS011;20423;49.448;9.056;2022-10-23T00:28:40;10.90;;;5.55;;
34146;SDS011;20423;49.448;9.056;2022-10-23T00:31:07;8.73;;;5.32;;
34146;SDS011;20423;49.448;9.056;2022-10-23T00:33:33;18.73;;;5.97;;
34146;SDS011;20423;49.448;9.056;2022-10-23T00:35:59;8.68;;;5.85;;
34146;SDS011;20423;49.448;9.056;2022-10-23T00:38:24;12.80;;;5.50;;
34146;SDS011;20423;49.448;9.056;2022-10-23T00:40:50;8.88;;;5.20;;
34146;SDS011;20423;49.448;9.056;2022-10-23T00:43:17;15.63;;;5.82;;
34146;SDS011;20423;49.448;9.056;2022-10-23T00:45:44;13.50;;;5.20;;
34146;SDS011;20423;49.448;9.056;2022-10-23T00:48:10;16.30;;;5.97;;
34146;SDS011;20423;49.448;9.056;2022-10-23T00:50:36;13.52;;;6.38;;
34146;SDS011;20423;49.448;9.056;2022-10-23T00:53:02;8.38;;;4.95;;
34146;SDS011;20423;49.448;9.056;2022-10-23T00:55:29;17.73;;;6.85;;
34146;SDS011;20423;49.448;9.056;2022-10-23T00:57:56;17.50;;;6.13;;
34146;SDS011;20423;49.448;9.056;2022-10-23T01:00:26;10.85;;;5.05;;
34146;SDS011;20423;49.448;9.056;2022-10-23T01:03:22;11.43;;;5.13;;
34146;SDS011;20423;49.448;9.056;2022-10-23T01:08:39;10.02;;;4.43;;
34146;SDS011;20423;49.448;9.056;2022-10-23T01:11:12;7.13;;;5.05;;
34146;SDS011;20423;49.448;9.056;2022-10-23T01:13:57;12.10;;;4.63;;
34146;SDS011;20423;49.448;9.056;2022-10-23T01:22:11;8.23;;;4.90;;
34146;SDS011;20423;49.448;9.056;2022-10-23T01:29:58;10.43;;;5.32;;
34146;SDS011;20423;49.448;9.056;2022-10-23T01:37:43;8.25;;;4.82;;
34146;SDS011;20423;49.448;9.056;2022-10-23T01:40:32;10.98;;;5.18;;
34146;SDS011;20423;49.448;9.056;2022-10-23T01:43:05;13.50;;;5.82;;
34146;SDS011;20423;49.448;9.056;2022-10-23T01:45:47;16.63;;;5.72;;
34146;SDS011;20423;49.448;9.056;2022-10-23T01:48:23;9.38;;;5.43;;
34146;SDS011;20423;49.448;9.056;2022-10-23T01:50:53;12.20;;;5.07;;
34146;SDS011;20423;49.448;9.056;2022-10-23T01:53:21;9.32;;;5.25;;
34146;SDS011;20423;49.448;9.056;2022-10-23T01:55:50;10.40;;;4.63;;
34146;SDS011;20423;49.448;9.056;2022-10-23T01:58:21;10.20;;;5.38;;
34146;SDS011;20423;49.448;9.056;2022-10-23T02:00:49;14.15;;;5.43;;
34146;SDS011;20423;49.448;9.056;2022-10-23T02:03:17;10.25;;;5.32;;
34146;SDS011;20423;49.448;9.056;2022-10-23T02:05:44;12.93;;;6.00;;
34146;SDS011;20423;49.448;9.056;2022-10-23T02:08:10;16.48;;;5.40;;
34146;SDS011;20423;49.448;9.056;2022-10-23T02:10:40;12.27;;;6.97;;
34146;SDS011;20423;49.448;9.056;2022-10-23T02:21:17;14.40;;;6.20;;
34146;SDS011;20423;49.448;9.056;2022-10-23T02:24:04;8.27;;;5.53;;
34146;SDS011;20423;49.448;9.056;2022-10-23T02:26:42;10.63;;;5.88;;
34146;SDS011;20423;49.448;9.056;2022-10-23T02:29:24;11.05;;;7.10;;
34146;SDS011;20423;49.448;9.056;2022-10-23T02:31:57;16.67;;;7.35;;
34146;SDS011;20423;49.448;9.056;2022-10-23T02:34:23;18.17;;;7.60;;
34146;SDS011;20423;49.448;9.056;2022-10-23T02:36:49;22.52;;;8.45;;
34146;SDS011;20423;49.448;9.056;2022-10-23T02:39:19;13.00;;;7.45;;
34146;SDS011;20423;49.448;9.056;2022-10-23T02:41:48;16.85;;;7.97;;
34146;SDS011;20423;49.448;9.056;2022-10-23T02:52:57;14.23;;;6.22;;
34146;SDS011;20423;49.448;9.056;2022-10-23T02:57:56;17.80;;;7.20;;
34146;SDS011;20423;49.448;9.056;2022-10-23T03:00:41;7.22;;;5.80;;
34146;SDS011;20423;49.448;9.056;2022-10-23T03:03:32;9.75;;;4.63;;
34146;SDS011;20423;49.448;9.056;2022-10-23T03:06:03;13.00;;;4.45;;
34146;SDS011;20423;49.448;9.056;2022-10-23T03:08:29;9.88;;;4.55;;
34146;SDS011;20423;49.448;9.056;2022-10-23T03:11:05;14.43;;;4.30;;
34146;SDS011;20423;49.448;9.056;2022-10-23T03:13:31;7.70;;;4.18;;
34146;SDS011;20423;49.448;9.056;2022-10-23T03:15:57;11.02;;;4.60;;
34146;SDS011;20423;49.448;9.056;2022-10-23T03:18:24;11.77;;;4.22;;
34146;SDS011;20423;49.448;9.056;2022-10-23T03:20:50;7.13;;;4.18;;
34146;SDS011;20423;49.448;9.056;2022-10-23T03:23:20;10.02;;;3.78;;
34146;SDS011;20423;49.448;9.056;2022-10-23T03:25:46;11.38;;;4.03;;
34146;SDS011;20423;49.448;9.056;2022-10-23T03:28:26;7.95;;;4.40;;
34146;SDS011;20423;49.448;9.056;2022-10-23T03:30:52;15.00;;;4.90;;
34146;SDS011;20423;49.448;9.056;2022-10-23T03:33:17;7.38;;;3.67;;
34146;SDS011;20423;49.448;9.056;2022-10-23T03:35:43;4.60;;;3.47;;
34146;SDS011;20423;49.448;9.056;2022-10-23T03:38:12;8.98;;;3.97;;
34146;SDS011;20423;49.448;9.056;2022-10-23T03:40:38;7.07;;;3.83;;
34146;SDS011;20423;49.448;9.056;2022-10-23T03:43:03;14.02;;;3.95;;
34146;SDS011;20423;49.448;9.056;2022-10-23T03:45:29;12.63;;;4.50;;
34146;SDS011;20423;49.448;9.056;2022-10-23T03:47:56;7.22;;;4.68;;
34146;SDS011;20423;49.448;9.056;2022-10-23T03:50:22;7.20;;;4.43;;
34146;SDS011;20423;49.448;9.056;2022-10-23T03:52:48;11.70;;;5.00;;
34146;SDS011;20423;49.448;9.056;2022-10-23T03:55:14;10.38;;;6.30;;
34146;SDS011;20423;49.448;9.056;2022-10-23T03:57:40;9.57;;;5.68;;
34146;SDS011;20423;49.448;9.056;2022-10-23T04:00:06;9.10;;;6.07;;
34146;SDS011;20423;49.448;9.056;2022-10-23T04:02:41;12.63;;;6.22;;
34146;SDS011;20423;49.448;9.056;2022-10-23T04:05:07;6.72;;;4.55;;
34146;SDS011;20423;49.448;9.056;2022-10-23T04:07:33;9.82;;;4.75;;
34146;SDS011;20423;49.448;9.056;2022-10-23T04:10:01;12.57;;;4.35;;
34146;SDS011;20423;49.448;9.056;2022-10-23T04:12:28;11.50;;;4.80;;
34146;SDS011;20423;49.448;9.056;2022-10-23T04:14:53;7.18;;;3.90;;
34146;SDS011;20423;49.448;9.056;2022-10-23T04:17:20;7.07;;;3.03;;
34146;SDS011;20423;49.448;9.056;2022-10-23T04:19:47;4.60;;;2.90;;
34146;SDS011;20423;49.448;9.056;2022-10-23T04:22:13;5.82;;;3.40;;
34146;SDS011;20423;49.448;9.056;2022-10-23T04:24:39;7.50;;;3.20;;
34146;SDS011;20423;49.448;9.056;2022-10-23T04:27:12;6.88;;;4.00;;
34146;SDS011;20423;49.448;9.056;2022-10-23T04:29:50;9.32;;;3.45;;
34146;SDS011;20423;49.448;9.056;2022-10-23T04:32:15;6.15;;;3.08;;
34146;SDS011;20423;49.448;9.056;2022-10-23T04:34:42;5.25;;;3.40;;
34146;SDS011;20423;49.448;9.056;2022-10-23T04:37:08;5.88;;;3.33;;
34146;SDS011;20423;49.448;9.056;2022-10-23T04:39:34;7.30;;;3.05;;
34146;SDS011;20423;49.448;9.056;2022-10-23T04:41:59;6.22;;;3.47;;
34146;SDS011;20423;49.448;9.056;2022-10-23T04:44:34;7.18;;;4.32;;
34146;SDS011;20423;49.448;9.056;2022-10-23T04:47:00;6.10;;;3.95;;
34146;SDS011;20423;49.448;9.056;2022-10-23T04:49:27;7.30;;;3.85;;
34146;SDS011;20423;49.448;9.056;2022-10-23T04:52:10;15.57;;;4.88;;
34146;SDS011;20423;49.448;9.056;2022-10-23T04:54:36;7.25;;;3.60;;
34146;SDS011;20423;49.448;9.056;2022-10-23T04:57:29;5.57;;;3.75;;
34146;SDS011;20423;49.448;9.056;2022-10-23T05:00:06;6.82;;;3.83;;
34146;SDS011;20423;49.448;9.056;2022-10-23T05:02:39;13.35;;;4.50;;
34146;SDS011;20423;49.448;9.056;2022-10-23T05:09:06;9.02;;;3.40;;
34146;SDS011;20423;49.448;9.056;2022-10-23T05:11:52;14.98;;;3.55;;
34146;SDS011;20423;49.448;9.056;2022-10-23T05:14:18;8.57;;;3.60;;
34146;SDS011;20423;49.448;9.056;2022-10-23T05:16:49;8.25;;;3.58;;
34146;SDS011;20423;49.448;9.056;2022-10-23T05:19:22;7.88;;;3.40;;
34146;SDS011;20423;49.448;9.056;2022-10-23T05:21:51;8.73;;;3.38;;
34146;SDS011;20423;49.448;9.056;2022-10-23T05:24:23;5.28;;;3.10;;
34146;SDS011;20423;49.448;9.056;2022-10-23T05:26:55;5.68;;;3.45;;
34146;SDS011;20423;49.448;9.056;2022-10-23T05:29:22;9.32;;;3.65;;
34146;SDS011;20423;49.448;9.056;2022-10-23T05:31:49;9.10;;;3.65;;
34146;SDS011;20423;49.448;9.056;2022-10-23T05:34:19;10.60;;;3.65;;
34146;SDS011;20423;49.448;9.056;2022-10-23T05:36:47;8.80;;;3.97;;
34146;SDS011;20423;49.448;9.056;2022-10-23T05:39:13;4.57;;;3.60;;
34146;SDS011;20423;49.448;9.056;2022-10-23T05:41:40;15.13;;;3.80;;
34146;SDS011;20423;49.448;9.056;2022-10-23T05:44:06;5.15;;;3.10;;
34146;SDS011;20423;49.448;9.056;2022-10-23T05:46:50;6.70;;;3.85;;
34146;SDS011;20423;49.448;9.056;2022-10-23T05:49:36;11.00;;;3.92;;
34146;SDS011;20423;49.448;9.056;2022-10-23T05:52:21;5.10;;;3.03;;
34146;SDS011;20423;49.448;9.056;2022-10-23T05:57:55;5.57;;;3.40;;
34146;SDS011;20423;49.448;9.056;2022-10-23T06:00:39;6.60;;;3.65;;
34146;SDS011;20423;49.448;9.056;2022-10-23T06:03:25;9.80;;;3.50;;
34146;SDS011;20423;49.448;9.056;2022-10-23T06:05:51;12.30;;;4.10;;
34146;SDS011;20423;49.448;9.056;2022-10-23T06:08:21;9.38;;;3.47;;
34146;SDS011;20423;49.448;9.056;2022-10-23T06:10:49;10.38;;;3.53;;
34146;SDS011;20423;49.448;9.056;2022-10-23T06:13:15;7.05;;;3.25;;
34146;SDS011;20423;49.448;9.056;2022-10-23T06:15:41;8.63;;;3.28;;
34146;SDS011;20423;49.448;9.056;2022-10-23T06:18:13;6.35;;;3.03;;
34146;SDS011;20423;49.448;9.056;2022-10-23T06:20:50;5.43;;;2.90;;
34146;SDS011;20423;49.448;9.056;2022-10-23T06:23:22;5.70;;;2.20;;
34146;SDS011;20423;49.448;9.056;2022-10-23T06:26:20;4.35;;;2.40;;
34146;SDS011;20423;49.448;9.056;2022-10-23T06:28:53;2.97;;;1.88;;
34146;SDS011;20423;49.448;9.056;2022-10-23T06:31:19;4.35;;;2.08;;
34146;SDS011;20423;49.448;9.056;2022-10-23T06:33:51;2.63;;;1.88;;
34146;SDS011;20423;49.448;9.056;2022-10-23T06:36:18;6.63;;;1.95;;
34146;SDS011;20423;49.448;9.056;2022-10-23T06:38:44;6.65;;;2.25;;
34146;SDS011;20423;49.448;9.056;2022-10-23T06:41:14;10.65;;;2.47;;
34146;SDS011;20423;49.448;9.056;2022-10-23T06:43:46;6.18;;;2.35;;
34146;SDS011;20423;49.448;9.056;2022-10-23T06:46:18;4.80;;;1.77;;
34146;SDS011;20423;49.448;9.056;2022-10-23T06:49:02;4.53;;;1.88;;
34146;SDS011;20423;49.448;9.056;2022-10-23T06:51:32;5.10;;;2.15;;
34146;SDS011;20423;49.448;9.056;2022-10-23T06:53:58;5.57;;;2.08;;
34146;SDS011;20423;49.448;9.056;2022-10-23T06:56:49;2.65;;;1.60;;
34146;SDS011;20423;49.448;9.056;2022-10-23T06:59:20;3.53;;;1.50;;
34146;SDS011;20423;49.448;9.056;2022-10-23T07:01:48;6.25;;;1.73;;
34146;SDS011;20423;49.448;9.056;2022-10-23T07:04:14;3.05;;;1.67;;
34146;SDS011;20423;49.448;9.056;2022-10-23T07:06:41;5.38;;;1.98;;
34146;SDS011;20423;49.448;9.056;2022-10-23T07:09:08;2.97;;;1.70;;
34146;SDS011;20423;49.448;9.056;2022-10-23T07:11:51;5.40;;;1.85;;
34146;SDS011;20423;49.448;9.056;2022-10-23T07:14:21;4.55;;;1.92;;
34146;SDS011;20423;49.448;9.056;2022-10-23T07:16:48;4.53;;;1.70;;
34146;SDS011;20423;49.448;9.056;2022-10-23T07:19:14;9.27;;;1.95;;
34146;SDS011;20423;49.448;9.056;2022-10-23T07:21:54;5.82;;;1.30;;
34146;SDS011;20423;49.448;9.056;2022-10-23T07:24:38;1.75;;;1.30;;
34146;SDS011;20423;49.448;9.056;2022-10-23T07:27:15;4.65;;;1.50;;
34146;SDS011;20423;49.448;9.056;2022-10-23T07:29:42;4.18;;;1.55;;
34146;SDS011;20423;49.448;9.056;2022-10-23T07:32:08;5.57;;;2.28;;
34146;SDS011;20423;49.448;9.056;2022-10-23T07:35:06;4.43;;;2.10;;
34146;SDS011;20423;49.448;9.056;2022-10-23T07:37:33;3.92;;;1.88;;
34146;SDS011;20423;49.448;9.056;2022-10-23T07:40:02;3.47;;;1.77;;
34146;SDS011;20423;49.448;9.056;2022-10-23T07:42:32;4.18;;;1.50;;
34146;SDS011;20423;49.448;9.056;2022-10-23T07:44:58;2.67;;;1.52;;
34146;SDS011;20423;49.448;9.056;2022-10-23T07:47:24;3.78;;;1.08;;
34146;SDS011;20423;49.448;9.056;2022-10-23T07:52:35;2.22;;;1.10;;
34146;SDS011;20423;49.448;9.056;2022-10-23T07:55:08;2.47;;;1.30;;
34146;SDS011;20423;49.448;9.056;2022-10-23T07:57:36;2.78;;;1.00;;
34146;SDS011;20423;49.448;9.056;2022-10-23T08:00:14;2.17;;;1.52;;
34146;SDS011;20423;49.448;9.056;2022-10-23T08:02:51;4.70;;;1.73;;
34146;SDS011;20423;49.448;9.056;2022-10-23T08:09:05;4.75;;;1.70;;
34146;SDS011;20423;49.448;9.056;2022-10-23T08:11:31;4.05;;;1.48;;
34146;SDS011;20423;49.448;9.056;2022-10-23T08:14:01;5.10;;;1.08;;
34146;SDS011;20423;49.448;9.056;2022-10-23T08:16:34;2.88;;;1.30;;
34146;SDS011;20423;49.448;9.056;2022-10-23T08:19:21;1.27;;;0.80;;
34146;SDS011;20423;49.448;9.056;2022-10-23T08:21:50;2.88;;;1.33;;
34146;SDS011;20423;49.448;9.056;2022-10-23T08:24:20;4.68;;;1.10;;
34146;SDS011;20423;49.448;9.056;2022-10-23T08:26:47;3.25;;;0.80;;
34146;SDS011;20423;49.448;9.056;2022-10-23T08:29:15;2.15;;;0.80;;
34146;SDS011;20423;49.448;9.056;2022-10-23T08:31:41;2.22;;;1.00;;
34146;SDS011;20423;49.448;9.056;2022-10-23T08:34:16;9.02;;;1.83;;
34146;SDS011;20423;49.448;9.056;2022-10-23T08:36:45;8.52;;;2.33;;
34146;SDS011;20423;49.448;9.056;2022-10-23T08:39:12;5.55;;;2.38;;
34146;SDS011;20423;49.448;9.056;2022-10-23T08:47:38;3.42;;;1.02;;
34146;SDS011;20423;49.448;9.056;2022-10-23T08:52:50;4.15;;;1.05;;
34146;SDS011;20423;49.448;9.056;2022-10-23T08:55:39;2.40;;;0.93;;
34146;SDS011;20423;49.448;9.056;2022-10-23T08:58:11;1.27;;;0.70;;
34146;SDS011;20423;49.448;9.056;2022-10-23T09:00:41;3.95;;;0.82;;
34146;SDS011;20423;49.448;9.056;2022-10-23T09:03:08;1.85;;;0.90;;
34146;SDS011;20423;49.448;9.056;2022-10-23T09:05:42;4.20;;;1.10;;
34146;SDS011;20423;49.448;9.056;2022-10-23T09:22:14;1.00;;;0.68;;
34146;SDS011;20423;49.448;9.056;2022-10-23T09:24:41;2.15;;;0.70;;
34146;SDS011;20423;49.448;9.056;2022-10-23T09:27:07;2.45;;;0.90;;
34146;SDS011;20423;49.448;9.056;2022-10-23T09:29:45;2.33;;;1.10;;
34146;SDS011;20423;49.448;9.056;2022-10-23T09:32:12;4.80;;;0.80;;
34146;SDS011;20423;49.448;9.056;2022-10-23T09:34:38;1.25;;;0.75;;
34146;SDS011;20423;49.448;9.056;2022-10-23T09:37:21;3.42;;;0.75;;
34146;SDS011;20423;49.448;9.056;2022-10-23T09:40:14;3.35;;;0.70;;
34146;SDS011;20423;49.448;9.056;2022-10-23T09:42:50;1.95;;;0.60;;
34146;SDS011;20423;49.448;9.056;2022-10-23T09:45:39;1.35;;;0.90;;
34146;SDS011;20423;49.448;9.056;2022-10-23T09:48:16;3.00;;;0.90;;
34146;SDS011;20423;49.448;9.056;2022-10-23T09:50:46;4.88;;;1.13;;
34146;SDS011;20423;49.448;9.056;2022-10-23T09:53:19;2.10;;;1.30;;
34146;SDS011;20423;49.448;9.056;2022-10-23T09:55:53;2.85;;;0.88;;
34146;SDS011;20423;49.448;9.056;2022-10-23T09:58:41;1.08;;;0.80;;
34146;SDS011;20423;49.448;9.056;2022-10-23T10:02:17;2.70;;;0.90;;
34146;SDS011;20423;49.448;9.056;2022-10-23T10:04:39;0.93;;;0.80;;
34146;SDS011;20423;49.448;9.056;2022-10-23T10:07:15;3.38;;;0.85;;
34146;SDS011;20423;49.448;9.056;2022-10-23T10:09:46;4.47;;;0.80;;
34146;SDS011;20423;49.448;9.056;2022-10-23T10:23:46;1.13;;;1.00;;
34146;SDS011;20423;49.448;9.056;2022-10-23T10:46:43;3.20;;;1.30;;
34146;SDS011;20423;49.448;9.056;2022-10-23T10:49:37;5.88;;;1.30;;
34146;SDS011;20423;49.448;9.056;2022-10-23T10:59:01;5.72;;;1.02;;
34146;SDS011;20423;49.448;9.056;2022-10-23T11:01:51;3.67;;;0.82;;
34146;SDS011;20423;49.448;9.056;2022-10-23T11:06:57;1.88;;;1.65;;
34146;SDS011;20423;49.448;9.056;2022-10-23T11:09:29;5.20;;;1.00;;
34146;SDS011;20423;49.448;9.056;2022-10-23T11:11:57;1.50;;;1.10;;
34146;SDS011;20423;49.448;9.056;2022-10-23T11:14:23;5.35;;;1.80;;
34146;SDS011;20423;49.448;9.056;2022-10-23T11:16:56;4.43;;;1.10;;
34146;SDS011;20423;49.448;9.056;2022-10-23T11:19:34;2.10;;;0.90;;
34146;SDS011;20423;49.448;9.056;2022-10-23T11:25:00;7.43;;;1.20;;
34146;SDS011;20423;49.448;9.056;2022-10-23T11:36:05;3.13;;;1.13;;
34146;SDS011;20423;49.448;9.056;2022-10-23T11:44:37;3.58;;;0.80;;
34146;SDS011;20423;49.448;9.056;2022-10-23T11:49:50;7.47;;;1.02;;
34146;SDS011;20423;49.448;9.056;2022-10-23T11:52:28;7.65;;;0.85;;
34146;SDS011;20423;49.448;9.056;2022-10-23T12:03:51;3.50;;;0.95;;
34146;SDS011;20423;49.448;9.056;2022-10-23T12:06:24;6.60;;;1.10;;
34146;SDS011;20423;49.448;9.056;2022-10-23T12:08:53;1.85;;;0.82;;
34146;SDS011;20423;49.448;9.056;2022-10-23T12:11:38;3.63;;;1.25;;
34146;SDS011;20423;49.448;9.056;2022-10-23T12:14:31;3.78;;;1.00;;
34146;SDS011;20423;49.448;9.056;2022-10-23T12:17:00;1.08;;;0.88;;
34146;SDS011;20423;49.448;9.056;2022-10-23T12:19:27;1.20;;;0.80;;
34146;SDS011;20423;49.448;9.056;2022-10-23T12:21:58;2.78;;;0.80;;
34146;SDS011;20423;49.448;9.056;2022-10-23T12:38:04;1.85;;;0.90;;
34146;SDS011;20423;49.448;9.056;2022-10-23T12:40:34;5.82;;;1.05;;
34146;SDS011;20423;49.448;9.056;2022-10-23T12:43:00;1.80;;;0.90;;
34146;SDS011;20423;49.448;9.056;2022-10-23T12:45:36;7.10;;;1.23;;
34146;SDS011;20423;49.448;9.056;2022-10-23T12:48:04;5.18;;;1.10;;
34146;SDS011;20423;49.448;9.056;2022-10-23T12:50:31;3.90;;;1.23;;
34146;SDS011;20423;49.448;9.056;2022-10-23T12:55:29;5.30;;;1.38;;
34146;SDS011;20423;49.448;9.056;2022-10-23T12:58:59;4.65;;;2.08;;
34146;SDS011;20423;49.448;9.056;2022-10-23T13:01:27;6.25;;;1.58;;
34146;SDS011;20423;49.448;9.056;2022-10-23T13:03:55;3.55;;;1.45;;
34146;SDS011;20423;49.448;9.056;2022-10-23T13:06:40;5.05;;;1.10;;
34146;SDS011;20423;49.448;9.056;2022-10-23T13:09:21;2.95;;;1.42;;
34146;SDS011;20423;49.448;9.056;2022-10-23T13:12:28;2.17;;;1.60;;
34146;SDS011;20423;49.448;9.056;2022-10-23T13:20:22;3.88;;;1.30;;
34146;SDS011;20423;49.448;9.056;2022-10-23T13:25:57;2.13;;;0.93;;
34146;SDS011;20423;49.448;9.056;2022-10-23T13:28:47;1.60;;;1.02;;
34146;SDS011;20423;49.448;9.056;2022-10-23T13:33:49;3.47;;;1.27;;
34146;SDS011;20423;49.448;9.056;2022-10-23T13:36:28;7.63;;;1.13;;
34146;SDS011;20423;49.448;9.056;2022-10-23T13:44:17;5.30;;;1.10;;
34146;SDS011;20423;49.448;9.056;2022-10-23T13:46:46;2.40;;;0.85;;
34146;SDS011;20423;49.448;9.056;2022-10-23T13:49:12;5.45;;;1.10;;
34146;SDS011;20423;49.448;9.056;2022-10-23T13:51:49;1.95;;;0.90;;
34146;SDS011;20423;49.448;9.056;2022-10-23T13:54:18;4.03;;;0.95;;
34146;SDS011;20423;49.448;9.056;2022-10-23T13:56:45;1.73;;;0.90;;
34146;SDS011;20423;49.448;9.056;2022-10-23T13:59:12;4.00;;;1.27;;
34146;SDS011;20423;49.448;9.056;2022-10-23T14:05:25;7.75;;;1.60;;
34146;SDS011;20423;49.448;9.056;2022-10-23T14:07:51;3.28;;;1.30;;
34146;SDS011;20423;49.448;9.056;2022-10-23T14:10:17;1.88;;;1.00;;
34146;SDS011;20423;49.448;9.056;2022-10-23T14:12:42;2.42;;;1.35;;
34146;SDS011;20423;49.448;9.056;2022-10-23T14:15:09;2.13;;;1.20;;
34146;SDS011;20423;49.448;9.056;2022-10-23T14:17:35;6.43;;;1.17;;
34146;SDS011;20423;49.448;9.056;2022-10-23T14:20:01;1.20;;;0.90;;
34146;SDS011;20423;49.448;9.056;2022-10-23T14:22:28;4.18;;;1.25;;
34146;SDS011;20423;49.448;9.056;2022-10-23T14:24:53;1.75;;;0.85;;
34146;SDS011;20423;49.448;9.056;2022-10-23T14:27:25;1.20;;;1.05;;
34146;SDS011;20423;49.448;9.056;2022-10-23T14:29:51;6.32;;;1.30;;
34146;SDS011;20423;49.448;9.056;2022-10-23T14:32:17;2.78;;;1.20;;
34146;SDS011;20423;49.448;9.056;2022-10-23T14:34:42;1.75;;;1.05;;
34146;SDS011;20423;49.448;9.056;2022-10-23T14:37:13;5.80;;;1.05;;
34146;SDS011;20423;49.448;9.056;2022-10-23T14:39:39;4.40;;;1.13;;
34146;SDS011;20423;49.448;9.056;2022-10-23T14:42:04;1.38;;;1.25;;
34146;SDS011;20423;49.448;9.056;2022-10-23T14:44:30;2.35;;;1.08;;
34146;SDS011;20423;49.448;9.056;2022-10-23T14:46:56;2.45;;;1.00;;
34146;SDS011;20423;49.448;9.056;2022-10-23T14:49:23;4.78;;;1.30;;
34146;SDS011;20423;49.448;9.056;2022-10-23T14:51:49;10.40;;;1.35;;
34146;SDS011;20423;49.448;9.056;2022-10-23T14:54:14;1.45;;;1.00;;
34146;SDS011;20423;49.448;9.056;2022-10-23T14:56:40;1.98;;;1.20;;
34146;SDS011;20423;49.448;9.056;2022-10-23T14:59:06;5.72;;;1.40;;
34146;SDS011;20423;49.448;9.056;2022-10-23T15:01:34;6.40;;;1.27;;
34146;SDS011;20423;49.448;9.056;2022-10-23T15:04:05;3.75;;;1.10;;
34146;SDS011;20423;49.448;9.056;2022-10-23T15:06:31;4.80;;;1.30;;
34146;SDS011;20423;49.448;9.056;2022-10-23T15:08:58;2.47;;;1.10;;
34146;SDS011;20423;49.448;9.056;2022-10-23T15:11:24;2.92;;;1.10;;
34146;SDS011;20423;49.448;9.056;2022-10-23T15:13:50;3.35;;;1.60;;
34146;SDS011;20423;49.448;9.056;2022-10-23T15:16:17;3.42;;;1.38;;
34146;SDS011;20423;49.448;9.056;2022-10-23T15:18:42;9.82;;;1.35;;
34146;SDS011;20423;49.448;9.056;2022-10-23T15:21:08;3.20;;;1.33;;
34146;SDS011;20423;49.448;9.056;2022-10-23T15:23:38;6.22;;;1.27;;
34146;SDS011;20423;49.448;9.056;2022-10-23T15:26:09;4.45;;;1.35;;
34146;SDS011;20423;49.448;9.056;2022-10-23T15:28:37;1.40;;;0.98;;
34146;SDS011;20423;49.448;9.056;2022-10-23T15:31:03;14.88;;;2.40;;
34146;SDS011;20423;49.448;9.056;2022-10-23T15:33:29;2.38;;;1.10;;
34146;SDS011;20423;49.448;9.056;2022-10-23T15:39:43;4.47;;;1.20;;
34146;SDS011;20423;49.448;9.056;2022-10-23T15:42:09;6.65;;;1.40;;
34146;SDS011;20423;49.448;9.056;2022-10-23T15:44:35;7.65;;;1.17;;
34146;SDS011;20423;49.448;9.056;2022-10-23T15:47:01;4.30;;;1.60;;
34146;SDS011;20423;49.448;9.056;2022-10-23T15:49:27;4.53;;;1.65;;
34146;SDS011;20423;49.448;9.056;2022-10-23T15:51:56;7.28;;;2.55;;
34146;SDS011;20423;49.448;9.056;2022-10-23T15:54:22;12.90;;;3.60;;
34146;SDS011;20423;49.448;9.056;2022-10-23T15:56:52;4.18;;;1.80;;
34146;SDS011;20423;49.448;9.056;2022-10-23T15:59:18;10.32;;;1.98;;
34146;SDS011;20423;49.448;9.056;2022-10-23T16:01:46;6.25;;;1.80;;
34146;SDS011;20423;49.448;9.056;2022-10-23T16:07:30;7.93;;;1.42;;
34146;SDS011;20423;49.448;9.056;2022-10-23T16:09:56;2.15;;;1.38;;
34146;SDS011;20423;49.448;9.056;2022-10-23T16:12:22;4.43;;;1.17;;
34146;SDS011;20423;49.448;9.056;2022-10-23T16:17:44;6.72;;;1.40;;
34146;SDS011;20423;49.448;9.056;2022-10-23T16:20:10;2.72;;;1.33;;
34146;SDS011;20423;49.448;9.056;2022-10-23T16:22:36;4.97;;;1.13;;
34146;SDS011;20423;49.448;9.056;2022-10-23T16:25:01;9.45;;;1.60;;
34146;SDS011;20423;49.448;9.056;2022-10-23T16:27:27;5.53;;;1.40;;
34146;SDS011;20423;49.448;9.056;2022-10-23T16:29:53;5.22;;;1.75;;
34146;SDS011;20423;49.448;9.056;2022-10-23T16:32:18;11.80;;;3.10;;
34146;SDS011;20423;49.448;9.056;2022-10-23T16:34:44;11.60;;;2.45;;
34146;SDS011;20423;49.448;9.056;2022-10-23T16:37:10;6.22;;;1.70;;
34146;SDS011;20423;49.448;9.056;2022-10-23T16:40:02;6.30;;;2.05;;
34146;SDS011;20423;49.448;9.056;2022-10-23T16:42:47;2.70;;;1.77;;
34146;SDS011;20423;49.448;9.056;2022-10-23T16:45:31;2.38;;;1.75;;
34146;SDS011;20423;49.448;9.056;2022-10-23T16:47:57;7.68;;;3.35;;
34146;SDS011;20423;49.448;9.056;2022-10-23T16:50:23;7.25;;;3.42;;
34146;SDS011;20423;49.448;9.056;2022-10-23T16:52:48;17.90;;;10.30;;
34146;SDS011;20423;49.448;9.056;2022-10-23T16:55:14;7.28;;;3.28;;
34146;SDS011;20423;49.448;9.056;2022-10-23T16:57:40;7.10;;;3.22;;
34146;SDS011;20423;49.448;9.056;2022-10-23T17:00:25;17.05;;;9.38;;
34146;SDS011;20423;49.448;9.056;2022-10-23T17:02:59;37.75;;;20.20;;
34146;SDS011;20423;49.448;9.056;2022-10-23T17:05:26;14.85;;;8.07;;
34146;SDS011;20423;49.448;9.056;2022-10-23T17:07:51;13.77;;;5.68;;
34146;SDS011;20423;49.448;9.056;2022-10-23T17:10:17;7.97;;;3.22;;
34146;SDS011;20423;49.448;9.056;2022-10-23T17:12:43;9.30;;;5.10;;
34146;SDS011;20423;49.448;9.056;2022-10-23T17:15:09;2.75;;;2.03;;
34146;SDS011;20423;49.448;9.056;2022-10-23T17:17:35;6.03;;;2.80;;
34146;SDS011;20423;49.448;9.056;2022-10-23T17:20:02;5.65;;;2.25;;
34146;SDS011;20423;49.448;9.056;2022-10-23T17:22:28;7.40;;;2.58;;
34146;SDS011;20423;49.448;9.056;2022-10-23T17:24:54;3.60;;;2.83;;
34146;SDS011;20423;49.448;9.056;2022-10-23T17:27:19;5.00;;;2.40;;
34146;SDS011;20423;49.448;9.056;2022-10-23T17:29:45;6.32;;;3.05;;
34146;SDS011;20423;49.448;9.056;2022-10-23T17:32:11;3.15;;;2.33;;
34146;SDS011;20423;49.448;9.056;2022-10-23T17:34:36;4.05;;;2.20;;
34146;SDS011;20423;49.448;9.056;2022-10-23T17:37:02;8.82;;;1.70;;
34146;SDS011;20423;49.448;9.056;2022-10-23T17:39:28;6.65;;;1.63;;
34146;SDS011;20423;49.448;9.056;2022-10-23T17:41:54;6.45;;;2.53;;
34146;SDS011;20423;49.448;9.056;2022-10-23T17:44:21;4.65;;;2.05;;
34146;SDS011;20423;49.448;9.056;2022-10-23T17:46:53;7.72;;;2.15;;
34146;SDS011;20423;49.448;9.056;2022-10-23T17:49:19;7.68;;;1.80;;
34146;SDS011;20423;49.448;9.056;2022-10-23T17:51:49;6.40;;;2.00;;
34146;SDS011;20423;49.448;9.056;2022-10-23T17:54:16;8.32;;;2.80;;
34146;SDS011;20423;49.448;9.056;2022-10-23T17:56:42;6.10;;;2.70;;
34146;SDS011;20423;49.448;9.056;2022-10-23T17:59:09;8.15;;;3.05;;
34146;SDS011;20423;49.448;9.056;2022-10-23T18:01:39;9.38;;;4.05;;
34146;SDS011;20423;49.448;9.056;2022-10-23T18:04:07;13.20;;;3.42;;
34146;SDS011;20423;49.448;9.056;2022-10-23T18:06:34;13.07;;;4.22;;
34146;SDS011;20423;49.448;9.056;2022-10-23T18:09:04;13.57;;;4.20;;
34146;SDS011;20423;49.448;9.056;2022-10-23T18:11:34;16.80;;;4.78;;
34146;SDS011;20423;49.448;9.056;2022-10-23T18:14:03;17.05;;;6.18;;
34146;SDS011;20423;49.448;9.056;2022-10-23T18:16:30;16.52;;;4.60;;
34146;SDS011;20423;49.448;9.056;2022-10-23T18:18:57;25.00;;;5.38;;